createdAt,value
2023-02-02T00:03:20.650Z,8.44
2023-02-02T00:08:12.474Z,8.42
2023-02-02T00:13:04.136Z,8.38
2023-02-02T00:17:55.843Z,8.37
2023-02-02T00:22:47.879Z,8.36
2023-02-02T00:27:39.628Z,8.35
2023-02-02T00:32:31.352Z,8.37
2023-02-02T00:37:23.059Z,8.36
2023-02-02T00:42:14.833Z,8.34
2023-02-02T00:47:06.537Z,8.28
2023-02-02T00:51:59.102Z,8.27
2023-02-02T00:56:51.028Z,8.21
2023-02-02T01:01:42.764Z,8.18
2023-02-02T01:06:34.663Z,8.15
2023-02-02T01:11:26.471Z,8.11
2023-02-02T01:16:18.657Z,8.04
2023-02-02T01:21:12.083Z,7.98
2023-02-02T01:26:06.946Z,7.97
2023-02-02T01:30:59.291Z,7.93
2023-02-02T01:35:53.930Z,7.94
2023-02-02T01:40:57.205Z,7.92
2023-02-02T01:45:49.078Z,7.92
2023-02-02T01:50:42.137Z,7.89
2023-02-02T01:55:36.135Z,7.81
2023-02-02T02:00:27.986Z,7.78
2023-02-02T02:05:26.019Z,7.79
2023-02-02T02:10:18.155Z,7.79
2023-02-02T02:15:29.463Z,7.75
2023-02-02T02:21:05.819Z,7.73
2023-02-02T02:26:30.569Z,7.67
2023-02-02T02:31:37.256Z,7.61
2023-02-02T02:36:57.101Z,7.59
2023-02-02T02:41:54.198Z,7.60
2023-02-02T02:46:47.294Z,7.57
2023-02-02T02:51:46.186Z,7.56
2023-02-02T02:56:40.858Z,7.56
2023-02-02T03:01:55.964Z,7.51
2023-02-02T03:06:57.425Z,7.52
2023-02-02T03:11:49.098Z,7.52
2023-02-02T03:16:40.749Z,7.52
2023-02-02T03:21:33.675Z,7.55
2023-02-02T03:26:25.920Z,7.55
2023-02-02T03:31:18.620Z,7.57
2023-02-02T03:36:10.545Z,7.58
2023-02-02T03:41:02.232Z,7.58
2023-02-02T03:46:04.942Z,7.56
2023-02-02T03:50:57.098Z,7.55
2023-02-02T03:55:50.442Z,7.56
2023-02-02T04:00:42.113Z,7.55
2023-02-02T04:05:33.853Z,7.52
2023-02-02T04:10:25.559Z,7.57
2023-02-02T04:15:17.458Z,7.57
2023-02-02T04:20:09.870Z,7.60
2023-02-02T04:25:01.697Z,7.63
2023-02-02T04:29:53.423Z,7.66
2023-02-02T04:34:45.323Z,7.73
2023-02-02T04:39:37.093Z,7.79
2023-02-02T04:44:28.831Z,7.81
2023-02-02T04:49:22.006Z,7.83
2023-02-02T04:54:14.701Z,7.83
2023-02-02T04:59:06.432Z,7.83
2023-02-02T05:04:00.821Z,7.82
2023-02-02T05:08:52.652Z,7.83
2023-02-02T05:13:48.473Z,7.80
2023-02-02T05:18:41.904Z,7.80
2023-02-02T05:23:33.615Z,7.81
2023-02-02T05:28:25.936Z,7.82
2023-02-02T05:33:20.631Z,7.83
2023-02-02T05:38:12.276Z,7.85
2023-02-02T05:43:04.129Z,7.86
2023-02-02T05:47:56.069Z,7.87
2023-02-02T05:52:48.974Z,7.91
2023-02-02T05:57:40.623Z,7.92
2023-02-02T06:02:32.393Z,7.92
2023-02-02T06:07:24.229Z,7.93
2023-02-02T06:12:15.972Z,7.96
2023-02-02T06:17:07.583Z,7.98
2023-02-02T06:21:59.347Z,7.95
2023-02-02T06:26:51.229Z,8.01
2023-02-02T06:31:43.096Z,8.04
2023-02-02T06:36:34.995Z,8.06
2023-02-02T06:41:26.719Z,8.09
2023-02-02T06:46:18.484Z,8.14
2023-02-02T06:51:10.175Z,8.16
2023-02-02T06:56:05.302Z,8.19
2023-02-02T07:01:04.283Z,8.20
2023-02-02T07:05:56.006Z,8.22
2023-02-02T07:11:13.768Z,8.22
2023-02-02T07:15:59.765Z,8.23
2023-02-02T07:20:51.464Z,8.22
2023-02-02T07:25:44.094Z,8.23
2023-02-02T07:30:35.790Z,8.21
2023-02-02T07:35:27.587Z,8.21
2023-02-02T07:40:19.665Z,8.20
2023-02-02T07:45:25.541Z,8.17
2023-02-02T07:50:19.785Z,8.19
2023-02-02T07:55:26.463Z,8.17
2023-02-02T08:00:19.092Z,8.15
2023-02-02T08:05:10.755Z,8.13
2023-02-02T08:10:02.786Z,8.12
2023-02-02T08:14:54.622Z,8.10
2023-02-02T08:19:46.292Z,8.11
2023-02-02T08:24:42.953Z,8.15
2023-02-02T08:29:35.992Z,8.17
2023-02-02T08:34:27.885Z,8.19
2023-02-02T08:39:19.600Z,8.20
2023-02-02T08:44:14.547Z,8.22
2023-02-02T08:49:06.284Z,8.24
2023-02-02T08:53:58.095Z,8.28
2023-02-02T08:58:53.315Z,8.36
2023-02-02T09:03:45.571Z,8.48
2023-02-02T09:08:37.663Z,8.57
2023-02-02T09:13:29.425Z,8.63
2023-02-02T09:18:21.130Z,8.66
2023-02-02T09:23:12.848Z,8.71
2023-02-02T09:28:04.717Z,8.76
2023-02-02T09:32:56.429Z,8.80
2023-02-02T09:37:48.125Z,8.82
2023-02-02T09:42:55.719Z,8.88
2023-02-02T09:47:58.471Z,8.92
2023-02-02T09:52:58.307Z,8.96
2023-02-02T09:57:54.490Z,9.04
2023-02-02T10:02:50.018Z,9.12
2023-02-02T10:07:47.150Z,9.18
2023-02-02T10:12:54.820Z,9.30
2023-02-02T10:18:02.542Z,9.42
2023-02-02T10:23:01.158Z,9.50
2023-02-02T10:28:06.830Z,9.61
2023-02-02T10:33:07.488Z,9.69
2023-02-02T10:38:05.049Z,9.75
2023-02-02T10:43:46.577Z,9.79
2023-02-02T10:48:39.219Z,9.78
2023-02-02T10:53:33.243Z,9.78
2023-02-02T10:58:40.355Z,9.78
2023-02-02T11:03:33.081Z,9.75
2023-02-02T11:08:35.391Z,9.76
2023-02-02T11:13:33.920Z,9.77
2023-02-02T11:18:30.544Z,9.74
2023-02-02T11:23:23.265Z,9.74
2023-02-02T11:28:24.969Z,9.77
2023-02-02T11:33:28.472Z,9.82
2023-02-02T11:38:21.437Z,9.88
2023-02-02T11:43:25.248Z,9.92
2023-02-02T11:48:26.877Z,9.94
2023-02-02T11:53:47.834Z,9.95
2023-02-02T11:58:56.596Z,9.96
2023-02-02T12:03:49.009Z,9.96
2023-02-02T12:08:40.798Z,9.98
2023-02-02T12:13:54.222Z,10.00
2023-02-02T12:18:57.854Z,10.02
2023-02-02T12:24:01.815Z,10.06
2023-02-02T12:29:15.052Z,10.10
2023-02-02T12:34:28.524Z,10.16
2023-02-02T12:39:22.942Z,10.18
2023-02-02T12:44:26.804Z,10.26
2023-02-02T12:49:33.870Z,10.42
2023-02-02T12:54:59.628Z,10.55
2023-02-02T13:00:13.605Z,10.71
2023-02-02T13:05:19.998Z,10.88
2023-02-02T13:10:32.060Z,10.98
2023-02-02T13:15:31.591Z,11.06
2023-02-02T13:20:41.078Z,11.10
2023-02-02T13:25:40.910Z,11.10
2023-02-02T13:30:38.333Z,11.07
2023-02-02T13:35:51.758Z,11.07
2023-02-02T13:40:44.349Z,11.05
2023-02-02T13:45:54.776Z,11.12
2023-02-02T13:51:06.427Z,11.16
2023-02-02T13:56:18.551Z,11.17
2023-02-02T14:01:13.297Z,11.21
2023-02-02T14:06:17.595Z,11.24
2023-02-02T14:11:18.740Z,11.25
2023-02-02T14:16:32.382Z,11.24
2023-02-02T14:21:33.500Z,11.23
2023-02-02T14:26:48.267Z,11.20
2023-02-02T14:31:53.262Z,11.16
2023-02-02T14:37:13.655Z,11.13
2023-02-02T14:42:33.936Z,11.14
2023-02-02T14:48:14.019Z,11.08
2023-02-02T14:53:20.689Z,11.05
2023-02-02T14:58:28.937Z,10.98
2023-02-02T15:03:37.927Z,10.94
2023-02-02T15:08:29.773Z,10.90
2023-02-02T15:13:42.518Z,10.88
2023-02-02T15:18:44.194Z,10.83
2023-02-02T15:23:43.564Z,10.86
2023-02-02T15:28:44.544Z,10.79
2023-02-02T15:33:40.149Z,10.63
2023-02-02T15:38:38.349Z,10.51
2023-02-02T15:43:30.290Z,10.39
2023-02-02T15:48:30.193Z,10.33
2023-02-02T15:53:29.536Z,10.29
2023-02-02T15:58:27.920Z,10.19
2023-02-02T16:03:26.918Z,10.13
2023-02-02T16:08:28.350Z,10.06
2023-02-02T16:13:26.781Z,9.98
2023-02-02T16:18:18.569Z,9.96
2023-02-02T16:23:16.770Z,9.94
2023-02-02T16:28:14.402Z,9.97
2023-02-02T16:33:38.463Z,9.94
2023-02-02T16:38:35.592Z,9.88
2023-02-02T16:43:28.761Z,9.82
2023-02-02T16:48:32.256Z,9.80
2023-02-02T16:53:24.502Z,9.75
2023-02-02T16:58:20.036Z,9.74
2023-02-02T17:03:18.009Z,9.76
2023-02-02T17:08:10.370Z,9.76
2023-02-02T17:13:03.845Z,9.76
2023-02-02T17:17:55.615Z,9.74
2023-02-02T17:22:50.324Z,9.73
2023-02-02T17:27:42.083Z,9.67
2023-02-02T17:32:33.794Z,9.64
2023-02-02T17:37:25.487Z,9.60
2023-02-02T17:42:26.697Z,9.59
2023-02-02T17:47:18.540Z,9.56
2023-02-02T17:52:10.796Z,9.52
2023-02-02T17:57:02.527Z,9.46
2023-02-02T18:01:55.173Z,9.46
2023-02-02T18:06:46.990Z,9.43
2023-02-02T18:11:39.503Z,9.43
2023-02-02T18:16:32.855Z,9.44
2023-02-02T18:21:28.220Z,9.44
2023-02-02T18:26:25.297Z,9.43
2023-02-02T18:31:19.845Z,9.42
2023-02-02T18:36:16.562Z,9.40
2023-02-02T18:41:09.009Z,9.39
2023-02-02T18:46:02.685Z,9.37
2023-02-02T18:50:54.475Z,9.39
2023-02-02T18:55:46.188Z,9.41
2023-02-02T19:00:37.846Z,9.40
2023-02-02T19:05:47.940Z,9.36
2023-02-02T19:10:39.739Z,9.32
2023-02-02T19:15:38.028Z,9.30
2023-02-02T19:20:30.802Z,9.29
2023-02-02T19:25:22.598Z,9.28
2023-02-02T19:30:22.170Z,9.27
2023-02-02T19:35:20.733Z,9.27
2023-02-02T19:40:13.565Z,9.29
2023-02-02T19:45:26.910Z,9.27
2023-02-02T19:50:27.542Z,9.23
2023-02-02T19:55:35.105Z,9.20
2023-02-02T20:00:29.977Z,9.21
2023-02-02T20:05:24.740Z,9.22
2023-02-02T20:10:46.047Z,9.20
2023-02-02T20:15:39.647Z,9.13
2023-02-02T20:20:43.743Z,9.06
2023-02-02T20:25:36.884Z,8.97
2023-02-02T20:30:31.172Z,8.93
2023-02-02T20:35:42.814Z,8.91
2023-02-02T20:40:34.527Z,8.88
2023-02-02T20:45:26.963Z,8.89
2023-02-02T20:50:21.857Z,8.87
2023-02-02T20:55:14.224Z,8.87
2023-02-02T21:00:13.437Z,8.87
2023-02-02T21:05:05.434Z,8.86
2023-02-02T21:09:57.136Z,8.78
2023-02-02T21:14:48.979Z,8.75
2023-02-02T21:19:40.616Z,8.72
2023-02-02T21:24:32.278Z,8.68
2023-02-02T21:29:25.440Z,8.65
2023-02-02T21:34:20.893Z,8.66
2023-02-02T21:39:19.304Z,8.65
2023-02-02T21:44:20.330Z,8.66
2023-02-02T21:49:37.085Z,8.66
2023-02-02T21:54:37.228Z,8.67
2023-02-02T21:59:36.710Z,8.66
2023-02-02T22:04:29.321Z,8.70
2023-02-02T22:09:22.887Z,8.70
2023-02-02T22:14:25.149Z,8.78
2023-02-02T22:19:38.644Z,8.80
2023-02-02T22:24:31.196Z,8.82
2023-02-02T22:29:24.565Z,8.83
2023-02-02T22:34:16.356Z,8.84
2023-02-02T22:39:08.027Z,8.87
2023-02-02T22:43:59.833Z,8.87
2023-02-02T22:48:51.575Z,8.84
2023-02-02T22:53:43.364Z,8.79
2023-02-02T22:58:35.045Z,8.80
2023-02-02T23:03:27.075Z,8.82
2023-02-02T23:08:18.887Z,8.84
2023-02-02T23:13:10.641Z,8.87
2023-02-02T23:18:03.831Z,8.87
2023-02-02T23:22:55.563Z,8.87
2023-02-02T23:27:47.327Z,8.85
2023-02-02T23:32:39.232Z,8.88
2023-02-02T23:37:30.930Z,8.90
2023-02-02T23:42:22.911Z,8.90
2023-02-02T23:47:16.011Z,8.94
2023-02-02T23:52:07.772Z,8.97
2023-02-02T23:56:59.678Z,9.00
